createdAt,value
2019-01-19T00:01:48.307Z,68.40
2019-01-19T00:04:22.403Z,68.10
2019-01-19T00:06:56.774Z,68.50
2019-01-19T00:09:47.702Z,68.50
2019-01-19T00:12:28.304Z,68.00
2019-01-19T00:14:57.202Z,67.80
2019-01-19T00:17:43.743Z,67.90
2019-01-19T00:20:45.541Z,68.00
2019-01-19T00:23:32.108Z,67.70
2019-01-19T00:26:18.715Z,67.80
2019-01-19T00:29:11.278Z,68.10
2019-01-19T00:31:45.782Z,67.90
2019-01-19T00:34:33.975Z,67.40
2019-01-19T00:37:02.787Z,67.70
2019-01-19T00:39:50.928Z,67.60
2019-01-19T00:42:28.681Z,67.30
2019-01-19T00:45:15.274Z,67.00
2019-01-19T00:47:52.657Z,67.20
2019-01-19T00:50:54.624Z,67.20
2019-01-19T00:53:38.230Z,67.00
2019-01-19T00:56:29.218Z,67.50
2019-01-19T00:59:00.851Z,67.20
2019-01-19T01:01:47.663Z,67.20
2019-01-19T01:04:25.260Z,67.20
2019-01-19T01:07:18.290Z,67.00
2019-01-19T01:09:52.782Z,66.90
2019-01-19T01:12:36.167Z,66.80
2019-01-19T01:15:13.609Z,66.80
2019-01-19T01:17:43.426Z,66.70
2019-01-19T01:20:32.412Z,67.00
2019-01-19T01:23:19.070Z,66.60
2019-01-19T01:26:08.697Z,67.60
2019-01-19T01:28:55.477Z,67.10
2019-01-19T01:31:45.227Z,67.00
2019-01-19T01:34:16.945Z,67.00
2019-01-19T01:36:54.754Z,66.70
2019-01-19T01:39:35.460Z,66.80
2019-01-19T01:42:09.870Z,67.20
2019-01-19T01:44:50.065Z,67.60
2019-01-19T01:47:33.366Z,67.70
2019-01-19T01:50:05.140Z,67.80
2019-01-19T01:52:36.839Z,68.00
2019-01-19T01:55:08.500Z,67.70
2019-01-19T01:57:37.206Z,67.60
2019-01-19T02:00:20.746Z,67.50
2019-01-19T02:03:03.706Z,67.20
2019-01-19T02:05:40.264Z,67.50
2019-01-19T02:08:09.018Z,67.70
2019-01-19T02:10:58.464Z,67.50
2019-01-19T02:13:50.907Z,67.00
2019-01-19T02:16:37.559Z,66.70
2019-01-19T02:19:30.341Z,67.40
2019-01-19T02:22:13.467Z,67.30
2019-01-19T02:24:59.834Z,67.50
2019-01-19T02:27:31.396Z,67.90
2019-01-19T02:30:03.082Z,68.00
2019-01-19T02:32:46.511Z,67.80
2019-01-19T02:35:30.187Z,67.70
2019-01-19T02:38:10.649Z,67.70
2019-01-19T02:40:48.484Z,67.60
2019-01-19T02:43:40.827Z,67.70
2019-01-19T02:46:21.059Z,67.20
2019-01-19T02:48:58.278Z,67.50
2019-01-19T02:51:42.007Z,67.40
2019-01-19T02:54:48.291Z,67.10
2019-01-19T02:57:25.459Z,67.10
2019-01-19T03:00:08.821Z,67.20
2019-01-19T03:02:52.447Z,67.40
2019-01-19T03:05:24.126Z,67.00
2019-01-19T03:07:55.784Z,67.10
2019-01-19T03:10:39.526Z,66.90
2019-01-19T03:13:13.803Z,67.10
2019-01-19T03:16:19.802Z,66.90
2019-01-19T03:18:51.602Z,66.60
2019-01-19T03:21:43.509Z,67.10
2019-01-19T03:24:24.074Z,66.90
2019-01-19T03:26:58.227Z,66.60
2019-01-19T03:29:35.448Z,66.90
2019-01-19T03:32:12.599Z,66.60
2019-01-19T03:34:50.239Z,66.70
2019-01-19T03:37:29.530Z,66.80
2019-01-19T03:40:18.063Z,66.70
2019-01-19T03:43:05.926Z,66.40
2019-01-19T03:46:12.074Z,66.40
2019-01-19T03:48:49.790Z,66.40
2019-01-19T03:51:24.206Z,66.60
2019-01-19T03:54:07.541Z,66.60
2019-01-19T03:56:39.436Z,66.50
2019-01-19T03:59:11.018Z,66.60
2019-01-19T04:01:58.994Z,66.30
2019-01-19T04:04:42.908Z,66.20
2019-01-19T04:07:29.109Z,66.10
2019-01-19T04:10:00.829Z,66.20
2019-01-19T04:12:38.320Z,66.30
2019-01-19T04:15:12.671Z,66.20
2019-01-19T04:17:56.325Z,66.20
2019-01-19T04:20:56.890Z,66.20
2019-01-19T04:23:25.524Z,66.20
2019-01-19T04:25:57.181Z,66.30
2019-01-19T04:28:25.786Z,66.60
2019-01-19T04:30:54.387Z,66.20
2019-01-19T04:33:22.982Z,65.90
2019-01-19T04:35:51.929Z,65.90
2019-01-19T04:38:20.689Z,65.80
2019-01-19T04:40:49.374Z,65.70
2019-01-19T04:43:18.557Z,65.70
2019-01-19T04:45:47.135Z,65.60
2019-01-19T04:48:17.428Z,66.00
2019-01-19T04:50:46.085Z,65.90
2019-01-19T04:53:14.672Z,65.70
2019-01-19T04:55:43.258Z,65.70
2019-01-19T04:58:11.968Z,65.60
2019-01-19T05:00:40.587Z,65.30
2019-01-19T05:03:09.397Z,64.80
2019-01-19T05:05:38.048Z,64.90
2019-01-19T05:08:06.850Z,65.20
2019-01-19T05:10:35.523Z,64.90
2019-01-19T05:13:04.362Z,64.70
2019-01-19T05:15:33.128Z,65.20
2019-01-19T05:18:02.228Z,65.50
2019-01-19T05:20:30.895Z,65.70
2019-01-19T05:22:59.478Z,65.70
2019-01-19T05:25:28.263Z,65.50
2019-01-19T05:27:56.902Z,65.40
2019-01-19T05:30:25.515Z,65.70
2019-01-19T05:33:13.552Z,65.70
2019-01-19T05:35:42.152Z,65.20
2019-01-19T05:38:10.793Z,65.60
2019-01-19T05:40:39.364Z,65.40
2019-01-19T05:43:08.020Z,65.40
2019-01-19T05:45:36.678Z,65.70
2019-01-19T05:48:05.343Z,64.80
2019-01-19T05:50:33.996Z,64.70
2019-01-19T05:53:02.606Z,64.60
2019-01-19T05:55:31.251Z,64.40
2019-01-19T05:57:59.908Z,64.30
2019-01-19T06:00:32.966Z,64.30
2019-01-19T06:03:01.737Z,64.40
2019-01-19T06:05:30.342Z,64.50
2019-01-19T06:07:59.035Z,64.50
2019-01-19T06:10:27.572Z,64.10
2019-01-19T06:12:56.170Z,64.30
2019-01-19T06:15:24.928Z,64.20
2019-01-19T06:17:53.660Z,64.10
2019-01-19T06:20:22.334Z,64.40
2019-01-19T06:22:50.920Z,64.90
2019-01-19T06:25:19.561Z,65.20
2019-01-19T06:27:48.134Z,64.80
2019-01-19T06:30:22.125Z,64.60
2019-01-19T06:32:50.712Z,64.50
2019-01-19T06:35:19.334Z,64.50
2019-01-19T06:37:48.255Z,64.30
2019-01-19T06:40:18.714Z,64.40
2019-01-19T06:42:47.418Z,64.30
2019-01-19T06:45:18.550Z,64.50
2019-01-19T06:47:47.099Z,64.40
2019-01-19T06:50:17.421Z,64.80
2019-01-19T06:52:46.197Z,64.90
2019-01-19T06:55:17.902Z,64.60
2019-01-19T06:57:46.524Z,64.70
2019-01-19T07:00:17.431Z,64.70
2019-01-19T07:02:46.147Z,64.60
2019-01-19T07:05:15.145Z,64.40
2019-01-19T07:07:43.828Z,63.90
2019-01-19T07:10:18.131Z,63.90
2019-01-19T07:12:46.763Z,63.70
2019-01-19T07:15:15.847Z,64.00
2019-01-19T07:17:44.515Z,64.40
2019-01-19T07:20:15.810Z,64.00
2019-01-19T07:22:44.410Z,63.50
2019-01-19T07:25:13.529Z,63.70
2019-01-19T07:27:42.186Z,64.10
2019-01-19T07:30:13.550Z,64.10
2019-01-19T07:32:42.480Z,64.20
2019-01-19T07:35:11.193Z,64.50
2019-01-19T07:37:40.105Z,64.70
2019-01-19T07:40:12.227Z,64.60
2019-01-19T07:42:42.346Z,64.70
2019-01-19T07:45:13.469Z,64.80
2019-01-19T07:47:43.435Z,65.00
2019-01-19T07:50:14.835Z,64.90
2019-01-19T07:52:43.654Z,64.90
2019-01-19T07:55:17.424Z,64.90
2019-01-19T07:57:46.367Z,65.40
2019-01-19T08:00:26.878Z,64.70
2019-01-19T08:02:55.413Z,64.90
2019-01-19T08:05:23.974Z,64.80
2019-01-19T08:07:52.710Z,64.50
2019-01-19T08:10:22.168Z,64.50
2019-01-19T08:12:50.774Z,64.40
2019-01-19T08:15:29.362Z,64.30
2019-01-19T08:17:58.614Z,64.20
2019-01-19T08:20:27.222Z,64.40
2019-01-19T08:22:55.892Z,64.70
2019-01-19T08:25:24.606Z,64.80
2019-01-19T08:27:53.235Z,65.40
2019-01-19T08:30:24.178Z,65.60
2019-01-19T08:32:52.973Z,65.60
2019-01-19T08:35:21.832Z,65.30
2019-01-19T08:37:50.692Z,65.00
2019-01-19T08:40:22.039Z,65.00
2019-01-19T08:42:52.386Z,65.10
2019-01-19T08:45:21.242Z,64.80
2019-01-19T08:47:49.850Z,64.80
2019-01-19T08:50:18.430Z,64.60
2019-01-19T08:53:06.490Z,64.80
2019-01-19T08:55:35.189Z,64.00
2019-01-19T08:58:04.337Z,64.80
2019-01-19T09:00:32.954Z,64.90
2019-01-19T09:03:01.644Z,64.50
2019-01-19T09:05:30.318Z,65.10
2019-01-19T09:08:00.721Z,65.00
2019-01-19T09:10:29.422Z,64.50
2019-01-19T09:12:57.993Z,64.50
2019-01-19T09:15:27.140Z,64.40
2019-01-19T09:17:55.969Z,64.70
2019-01-19T09:20:24.766Z,64.90
2019-01-19T09:22:54.964Z,64.80
2019-01-19T09:25:43.002Z,64.60
2019-01-19T09:28:11.651Z,64.50
2019-01-19T09:30:40.290Z,65.60
2019-01-19T09:33:08.887Z,65.20
2019-01-19T09:35:37.490Z,65.00
2019-01-19T09:38:06.051Z,64.90
2019-01-19T09:40:35.003Z,64.70
2019-01-19T09:43:03.626Z,64.30
2019-01-19T09:45:34.051Z,64.60
2019-01-19T09:48:21.987Z,64.90
2019-01-19T09:50:52.662Z,64.40
2019-01-19T09:53:21.039Z,64.80
2019-01-19T09:55:49.795Z,64.80
2019-01-19T09:58:18.422Z,64.70
2019-01-19T10:00:47.360Z,64.70
2019-01-19T10:03:16.039Z,64.70
2019-01-19T10:05:44.827Z,64.90
2019-01-19T10:08:13.665Z,64.60
2019-01-19T10:10:42.998Z,63.60
2019-01-19T10:13:11.846Z,63.30
2019-01-19T10:15:40.391Z,63.20
2019-01-19T10:18:09.060Z,63.10
2019-01-19T10:20:37.645Z,62.80
2019-01-19T10:23:06.351Z,62.90
2019-01-19T10:25:35.186Z,63.20
2019-01-19T10:28:03.955Z,62.70
2019-01-19T10:30:32.629Z,62.50
2019-01-19T10:33:01.294Z,62.40
2019-01-19T10:35:33.060Z,62.40
2019-01-19T10:38:01.506Z,62.70
2019-01-19T10:40:30.120Z,62.40
2019-01-19T10:42:58.778Z,62.30
2019-01-19T10:45:29.128Z,61.80
2019-01-19T10:48:19.157Z,62.00
2019-01-19T10:50:47.704Z,61.80
2019-01-19T10:53:16.447Z,62.20
2019-01-19T10:55:45.142Z,61.40
2019-01-19T10:58:13.790Z,61.50
2019-01-19T11:00:42.346Z,61.70
2019-01-19T11:03:11.159Z,61.80
2019-01-19T11:05:39.720Z,61.40
2019-01-19T11:08:10.355Z,61.20
2019-01-19T11:10:39.311Z,61.10
2019-01-19T11:13:08.337Z,60.90
2019-01-19T11:15:36.948Z,60.60
2019-01-19T11:18:06.361Z,60.80
2019-01-19T11:20:35.114Z,60.50
2019-01-19T11:23:03.934Z,61.00
2019-01-19T11:25:32.590Z,60.80
2019-01-19T11:28:20.607Z,61.30
2019-01-19T11:30:49.218Z,60.80
2019-01-19T11:33:17.847Z,61.60
2019-01-19T11:35:47.270Z,61.10
2019-01-19T11:38:20.023Z,61.20
2019-01-19T11:40:46.322Z,61.10
2019-01-19T11:43:14.908Z,60.90
2019-01-19T11:45:43.710Z,61.30
2019-01-19T11:48:12.384Z,61.10
2019-01-19T11:50:42.497Z,61.10
2019-01-19T11:53:11.216Z,60.90
2019-01-19T11:55:40.098Z,61.30
2019-01-19T11:58:12.044Z,61.70
2019-01-19T12:00:41.139Z,61.10
2019-01-19T12:03:10.784Z,61.00
2019-01-19T12:05:40.223Z,61.10
2019-01-19T12:08:09.977Z,60.80
2019-01-19T12:10:38.671Z,60.70
2019-01-19T12:13:07.693Z,60.70
2019-01-19T12:15:36.483Z,60.60
2019-01-19T12:18:05.426Z,60.60
2019-01-19T12:20:37.046Z,60.70
2019-01-19T12:23:08.139Z,60.00
2019-01-19T12:25:36.578Z,59.60
2019-01-19T12:28:05.776Z,59.80
2019-01-19T12:30:35.735Z,59.90
2019-01-19T12:33:05.290Z,59.90
2019-01-19T12:35:36.757Z,60.40
2019-01-19T12:38:05.476Z,60.60
2019-01-19T12:40:34.438Z,60.00
2019-01-19T12:43:06.452Z,60.60
2019-01-19T12:45:41.429Z,60.10
2019-01-19T12:48:11.761Z,61.10
2019-01-19T12:50:40.849Z,60.90
2019-01-19T12:53:09.701Z,60.50
2019-01-19T12:55:39.614Z,60.20
2019-01-19T12:58:09.686Z,60.60
2019-01-19T13:00:38.462Z,61.40
2019-01-19T13:03:08.268Z,60.40
2019-01-19T13:05:53.943Z,60.00
2019-01-19T13:08:26.518Z,59.80
2019-01-19T13:11:04.413Z,60.00
2019-01-19T13:13:34.686Z,60.40
2019-01-19T13:16:27.525Z,60.30
2019-01-19T13:19:29.345Z,60.20
2019-01-19T13:22:12.939Z,60.50
2019-01-19T13:24:47.289Z,60.40
2019-01-19T13:27:28.095Z,61.00
2019-01-19T13:30:05.779Z,61.10
2019-01-19T13:32:43.324Z,61.20
2019-01-19T13:35:40.766Z,61.30
2019-01-19T13:38:42.094Z,61.70
2019-01-19T13:41:45.509Z,61.50
2019-01-19T13:44:28.711Z,61.60
2019-01-19T13:47:16.702Z,61.20
2019-01-19T13:49:57.269Z,61.30
2019-01-19T13:52:46.641Z,60.80
2019-01-19T13:55:50.345Z,60.70
2019-01-19T13:58:34.130Z,60.30
2019-01-19T14:01:40.725Z,60.20
2019-01-19T14:04:24.400Z,60.50
2019-01-19T14:06:58.764Z,61.00
2019-01-19T14:09:43.964Z,60.70
2019-01-19T14:12:24.799Z,60.50
2019-01-19T14:15:02.398Z,60.50
2019-01-19T14:17:45.793Z,60.60
2019-01-19T14:20:37.060Z,60.80
2019-01-19T14:23:44.320Z,61.00
2019-01-19T14:26:15.877Z,61.20
2019-01-19T14:29:14.322Z,61.50
2019-01-19T14:32:05.432Z,61.20
2019-01-19T14:34:37.108Z,61.20
2019-01-19T14:37:11.354Z,61.40
2019-01-19T14:39:58.468Z,61.30
2019-01-19T14:42:52.787Z,61.00
2019-01-19T14:45:42.688Z,60.90
2019-01-19T14:48:32.446Z,61.10
2019-01-19T14:51:09.247Z,60.70
2019-01-19T14:53:57.361Z,60.70
2019-01-19T14:56:34.908Z,61.10
2019-01-19T14:59:06.593Z,60.60
2019-01-19T15:01:40.961Z,60.50
2019-01-19T15:04:18.237Z,60.40
2019-01-19T15:07:14.171Z,60.10
2019-01-19T15:09:53.272Z,60.70
2019-01-19T15:12:36.198Z,60.60
2019-01-19T15:15:07.873Z,60.20
2019-01-19T15:18:03.965Z,60.30
2019-01-19T15:20:50.847Z,60.20
2019-01-19T15:23:34.411Z,60.10
2019-01-19T15:26:33.158Z,60.50
2019-01-19T15:29:43.775Z,60.50
2019-01-19T15:32:24.190Z,60.70
2019-01-19T15:35:29.044Z,60.80
2019-01-19T15:38:15.572Z,60.50
2019-01-19T15:40:59.029Z,60.00
2019-01-19T15:43:33.603Z,59.40
2019-01-19T15:46:34.086Z,59.50
2019-01-19T15:49:08.559Z,59.60
2019-01-19T15:51:58.055Z,59.90
2019-01-19T15:54:46.246Z,59.70
2019-01-19T15:57:51.264Z,59.70
2019-01-19T16:00:25.664Z,59.40
2019-01-19T16:03:06.138Z,59.00
2019-01-19T16:09:18.348Z,59.50
2019-01-19T16:12:04.052Z,59.50
2019-01-19T16:14:41.115Z,59.80
2019-01-19T16:17:24.801Z,59.50
2019-01-19T16:20:14.498Z,59.30
2019-01-19T16:22:55.110Z,59.90
2019-01-19T16:25:44.790Z,59.80
2019-01-19T16:28:33.074Z,59.60
2019-01-19T16:31:31.761Z,59.70
2019-01-19T16:34:06.103Z,59.50
2019-01-19T16:36:51.501Z,59.90
2019-01-19T16:39:42.328Z,59.40
2019-01-19T16:42:16.654Z,59.30
2019-01-19T16:45:14.085Z,59.80
2019-01-19T16:48:06.784Z,59.40
2019-01-19T16:50:38.490Z,59.30
2019-01-19T16:53:22.307Z,59.50
2019-01-19T16:55:53.939Z,59.40
2019-01-19T16:58:36.995Z,59.30
2019-01-19T17:01:26.845Z,59.80
2019-01-19T17:04:11.044Z,59.80
2019-01-19T17:06:48.499Z,59.90
2019-01-19T17:09:33.106Z,59.80
2019-01-19T17:12:05.091Z,60.20
2019-01-19T17:14:51.944Z,60.50
2019-01-19T17:17:35.641Z,60.40
2019-01-19T17:20:28.361Z,60.20
2019-01-19T17:23:05.630Z,59.80
2019-01-19T17:25:41.836Z,59.70
2019-01-19T17:28:25.307Z,59.90
2019-01-19T17:31:05.431Z,60.30
2019-01-19T17:33:46.236Z,60.50
2019-01-19T17:36:35.746Z,60.50
2019-01-19T17:39:26.651Z,60.40
2019-01-19T17:42:01.240Z,59.80
2019-01-19T17:44:35.818Z,60.70
2019-01-19T17:47:13.602Z,60.40
2019-01-19T17:49:54.034Z,60.00
2019-01-19T17:52:40.738Z,59.50
2019-01-19T17:55:23.922Z,60.00
2019-01-19T17:58:21.526Z,60.70
2019-01-19T18:01:11.822Z,60.50
2019-01-19T18:03:49.386Z,60.70
2019-01-19T18:06:23.835Z,60.90
2019-01-19T18:09:07.486Z,61.00
2019-01-19T18:11:41.882Z,60.30
2019-01-19T18:14:31.729Z,60.70
2019-01-19T18:17:20.127Z,60.80
2019-01-19T18:20:12.832Z,60.80
2019-01-19T18:22:53.441Z,60.00
2019-01-19T18:25:27.998Z,60.20
2019-01-19T18:28:15.089Z,59.70
2019-01-19T18:30:47.151Z,59.60
2019-01-19T18:33:24.347Z,60.60
2019-01-19T18:35:55.952Z,60.40
2019-01-19T18:38:30.483Z,60.30
2019-01-19T18:41:07.889Z,59.60
2019-01-19T18:43:48.286Z,59.40
2019-01-19T18:46:22.644Z,59.50
2019-01-19T18:49:06.004Z,60.00
2019-01-19T18:51:55.498Z,59.90
2019-01-19T18:54:48.174Z,60.30
2019-01-19T18:57:22.819Z,61.10
2019-01-19T19:00:00.536Z,62.10
2019-01-19T19:02:52.049Z,61.40
2019-01-19T19:05:41.754Z,61.40
2019-01-19T19:08:28.386Z,61.40
2019-01-19T19:11:27.290Z,61.10
2019-01-19T19:14:01.808Z,61.20
2019-01-19T19:16:51.024Z,60.80
2019-01-19T19:19:34.411Z,60.70
2019-01-19T19:22:18.338Z,60.60
2019-01-19T19:25:14.045Z,60.80
2019-01-19T19:28:09.893Z,60.50
2019-01-19T19:30:56.574Z,60.90
2019-01-19T19:33:46.283Z,61.10
2019-01-19T19:36:29.837Z,61.10
2019-01-19T19:39:01.463Z,61.10
2019-01-19T19:41:39.065Z,61.10
2019-01-19T19:44:19.475Z,61.20
2019-01-19T19:46:54.095Z,61.40
2019-01-19T19:49:40.145Z,61.40
2019-01-19T19:52:08.813Z,61.90
2019-01-19T19:54:37.550Z,61.90
2019-01-19T19:57:06.685Z,61.80
2019-01-19T19:59:35.391Z,61.70
2019-01-19T20:02:04.244Z,61.20
2019-01-19T20:04:32.922Z,61.10
2019-01-19T20:07:01.719Z,61.30
2019-01-19T20:09:30.368Z,61.30
2019-01-19T20:11:59.888Z,61.50
2019-01-19T20:14:28.594Z,61.60
2019-01-19T20:16:57.158Z,61.70
2019-01-19T20:19:27.742Z,61.90
2019-01-19T20:21:56.163Z,62.00
2019-01-19T20:24:24.855Z,62.10
2019-01-19T20:26:53.414Z,62.10
2019-01-19T20:29:22.078Z,62.00
2019-01-19T20:31:50.671Z,62.20
2019-01-19T20:34:19.267Z,62.50
2019-01-19T20:36:47.985Z,62.50
2019-01-19T20:39:16.664Z,62.80
2019-01-19T20:41:46.621Z,62.70
2019-01-19T20:44:15.223Z,62.40
2019-01-19T20:46:43.823Z,62.30
2019-01-19T20:49:12.391Z,62.20
2019-01-19T20:51:40.998Z,62.10
2019-01-19T20:54:09.619Z,61.80
2019-01-19T20:56:38.185Z,62.10
2019-01-19T20:59:06.950Z,62.50
2019-01-19T21:01:35.519Z,62.60
2019-01-19T21:04:04.286Z,62.40
2019-01-19T21:06:32.898Z,62.30
2019-01-19T21:09:01.516Z,62.10
2019-01-19T21:11:30.106Z,62.00
2019-01-19T21:13:58.960Z,62.00
2019-01-19T21:16:29.526Z,62.00
2019-01-19T21:18:58.037Z,62.60
2019-01-19T21:21:26.622Z,62.10
2019-01-19T21:23:55.329Z,62.10
2019-01-19T21:26:23.878Z,62.00
2019-01-19T21:28:52.534Z,62.30
2019-01-19T21:31:21.256Z,62.90
2019-01-19T21:33:49.842Z,62.90
2019-01-19T21:36:18.470Z,63.10
2019-01-19T21:38:47.178Z,62.90
2019-01-19T21:41:15.744Z,62.50
2019-01-19T21:43:44.382Z,62.30
2019-01-19T21:46:13.044Z,62.30
2019-01-19T21:48:41.627Z,62.50
2019-01-19T21:51:10.282Z,62.40
2019-01-19T21:53:39.182Z,62.40
2019-01-19T21:56:07.742Z,62.10
2019-01-19T21:58:36.442Z,62.50
2019-01-19T22:01:05.680Z,62.40
2019-01-19T22:03:34.566Z,62.20
2019-01-19T22:06:03.694Z,62.60
2019-01-19T22:08:32.248Z,62.40
2019-01-19T22:11:00.850Z,62.20
2019-01-19T22:13:29.340Z,62.30
2019-01-19T22:15:57.944Z,62.30
2019-01-19T22:18:26.590Z,61.70
2019-01-19T22:20:55.195Z,61.70
2019-01-19T22:23:23.824Z,61.40
2019-01-19T22:25:52.362Z,61.90
2019-01-19T22:28:20.961Z,62.30
2019-01-19T22:30:49.543Z,62.40
2019-01-19T22:33:18.642Z,62.80
2019-01-19T22:35:47.366Z,62.80
2019-01-19T22:38:15.974Z,62.70
2019-01-19T22:40:44.514Z,62.70
2019-01-19T22:43:13.916Z,62.70
2019-01-19T22:45:43.490Z,62.70
2019-01-19T22:48:12.154Z,62.60
2019-01-19T22:50:40.945Z,62.20
2019-01-19T22:53:09.501Z,62.10
2019-01-19T22:55:38.083Z,61.70
2019-01-19T22:58:06.719Z,61.90
2019-01-19T23:00:40.046Z,61.70
2019-01-19T23:03:08.778Z,62.60
2019-01-19T23:05:40.399Z,62.10
2019-01-19T23:08:09.099Z,61.80
2019-01-19T23:10:37.759Z,62.30
2019-01-19T23:13:06.606Z,62.10
2019-01-19T23:15:35.205Z,62.10
2019-01-19T23:18:03.976Z,62.10
2019-01-19T23:20:32.540Z,61.80
2019-01-19T23:23:01.447Z,62.40
2019-01-19T23:25:29.994Z,63.00
2019-01-19T23:27:58.751Z,62.10
2019-01-19T23:30:27.486Z,61.80
2019-01-19T23:32:56.119Z,61.80
2019-01-19T23:35:24.881Z,61.60
2019-01-19T23:37:53.489Z,61.30
2019-01-19T23:40:22.125Z,61.50
2019-01-19T23:42:50.700Z,61.60
2019-01-19T23:45:19.254Z,61.40
2019-01-19T23:47:48.042Z,61.70
2019-01-19T23:50:16.726Z,61.40
2019-01-19T23:52:45.310Z,61.10
2019-01-19T23:55:13.969Z,61.30
2019-01-19T23:57:42.628Z,61.30
